Terminal Aerodrome Forecast
Issued by NWS Quad Cities IA IL

Home | Current Version | Previous Version | Text Only | Print | Product List | Glossary On
Versions: 1 2 3 4 5 6 7 8 9 10 11 12 13 14 15 16 17 18 19
000
FTUS43 KDVN 250500
TAFMLI
TAF
KMLI 250520Z 2506/2606 17007KT P6SM SCT120
      TEMPO 2511/2513 5SM BR
     FM251500 20008KT P6SM SCT050 BKN250
     FM252200 19006KT P6SM VCSH OVC100=

USA.gov is the U.S. government's official web portal to all federal, state and local government web resources and services.